createdAt,value
2022-07-27T00:03:05.440Z,2.00
2022-07-27T00:07:06.464Z,2.07
2022-07-27T00:11:09.834Z,2.07
2022-07-27T00:15:12.476Z,1.93
2022-07-27T00:19:13.783Z,1.97
2022-07-27T00:23:15.254Z,2.03
2022-07-27T00:27:16.667Z,2.07
2022-07-27T00:31:18.215Z,2.03
2022-07-27T00:35:19.517Z,1.73
2022-07-27T00:39:32.819Z,2.50
2022-07-27T00:43:43.616Z,2.47
2022-07-27T00:47:44.644Z,2.07
2022-07-27T00:51:46.080Z,2.70
2022-07-27T00:55:47.329Z,1.80
2022-07-27T00:59:48.494Z,2.20
2022-07-27T01:03:49.606Z,2.10
2022-07-27T01:07:50.847Z,2.10
2022-07-27T01:11:52.076Z,2.30
2022-07-27T01:15:53.539Z,1.90
2022-07-27T01:19:54.696Z,2.00
2022-07-27T01:23:55.630Z,1.87
2022-07-27T01:27:56.657Z,1.80
2022-07-27T01:31:58.295Z,3.27
2022-07-27T01:35:59.394Z,3.17
2022-07-27T01:40:00.487Z,2.20
2022-07-27T01:44:01.762Z,2.50
2022-07-27T01:48:03.035Z,2.83
2022-07-27T01:52:04.769Z,2.10
2022-07-27T01:56:10.585Z,2.50
2022-07-27T02:00:12.427Z,2.10
2022-07-27T02:04:13.749Z,2.60
2022-07-27T02:08:14.967Z,2.57
2022-07-27T02:12:34.398Z,2.00
2022-07-27T02:16:35.631Z,2.40
2022-07-27T02:20:39.630Z,2.10
2022-07-27T02:24:40.769Z,2.47
2022-07-27T02:28:42.138Z,2.70
2022-07-27T02:32:44.412Z,2.33
2022-07-27T02:36:45.707Z,2.67
2022-07-27T02:40:47.153Z,2.10
2022-07-27T02:44:48.282Z,3.57
2022-07-27T02:48:49.445Z,2.83
2022-07-27T02:52:50.418Z,2.37
2022-07-27T02:56:52.774Z,2.57
2022-07-27T03:00:58.402Z,2.47
2022-07-27T03:04:56.859Z,2.30
2022-07-27T03:08:57.902Z,2.80
2022-07-27T03:12:59.157Z,2.50
2022-07-27T03:17:00.163Z,3.03
2022-07-27T03:21:01.299Z,2.77
2022-07-27T03:25:02.632Z,3.03
2022-07-27T03:29:03.972Z,2.50
2022-07-27T03:33:05.107Z,2.63
2022-07-27T03:37:06.262Z,2.90
2022-07-27T03:41:07.370Z,3.00
2022-07-27T03:45:09.266Z,2.63
2022-07-27T03:49:13.756Z,2.57
2022-07-27T03:53:13.191Z,2.33
2022-07-27T03:57:14.771Z,2.53
2022-07-27T04:01:16.067Z,2.40
2022-07-27T04:05:17.393Z,2.87
2022-07-27T04:09:19.298Z,2.90
2022-07-27T04:13:21.677Z,2.17
2022-07-27T04:17:54.918Z,2.37
2022-07-27T04:21:25.950Z,2.53
2022-07-27T04:25:29.900Z,2.43
2022-07-27T04:29:31.126Z,2.73
2022-07-27T04:33:34.059Z,2.83
2022-07-27T04:37:35.484Z,3.17
2022-07-27T04:41:36.982Z,2.20
2022-07-27T04:45:38.475Z,4.10
2022-07-27T04:49:39.672Z,2.90
2022-07-27T04:53:53.588Z,3.17
2022-07-27T04:57:44.997Z,2.97
2022-07-27T05:01:46.557Z,2.93
2022-07-27T05:05:49.635Z,3.70
2022-07-27T05:09:50.800Z,3.13
2022-07-27T05:13:52.061Z,2.73
2022-07-27T05:17:53.195Z,3.70
2022-07-27T05:21:54.211Z,3.00
2022-07-27T05:25:55.316Z,3.30
2022-07-27T05:29:56.397Z,2.70
2022-07-27T05:38:21.700Z,3.00
2022-07-27T05:42:22.795Z,3.30
2022-07-27T05:46:24.773Z,3.33
2022-07-27T05:50:26.143Z,2.90
2022-07-27T05:54:27.286Z,2.53
2022-07-27T05:58:28.904Z,2.37
2022-07-27T06:02:30.991Z,4.00
2022-07-27T06:06:50.334Z,2.07
2022-07-27T06:10:51.322Z,2.63
2022-07-27T06:14:52.427Z,2.20
2022-07-27T06:18:53.560Z,2.27
2022-07-27T06:22:58.474Z,3.33
2022-07-27T06:27:00.098Z,2.70
2022-07-27T06:31:01.267Z,2.73
2022-07-27T06:35:03.588Z,2.37
2022-07-27T06:39:04.887Z,2.53
2022-07-27T06:43:05.906Z,3.30
2022-07-27T06:47:07.200Z,2.10
2022-07-27T06:51:08.809Z,2.40
2022-07-27T06:55:09.842Z,2.07
2022-07-27T06:59:11.234Z,2.10
2022-07-27T07:03:12.397Z,2.40
2022-07-27T07:07:13.598Z,1.97
2022-07-27T07:11:14.795Z,2.10
2022-07-27T07:15:16.217Z,2.13
2022-07-27T07:19:17.860Z,2.10
2022-07-27T07:23:18.968Z,2.23
2022-07-27T07:27:22.782Z,1.93
2022-07-27T07:31:23.979Z,1.77
2022-07-27T07:35:27.135Z,2.00
2022-07-27T07:39:31.350Z,2.63
2022-07-27T07:43:31.329Z,1.87
2022-07-27T07:47:32.570Z,2.03
2022-07-27T07:51:33.578Z,2.03
2022-07-27T07:55:34.485Z,1.97
2022-07-27T07:59:35.426Z,2.13
2022-07-27T08:03:36.473Z,3.77
2022-07-27T08:07:37.987Z,2.03
2022-07-27T08:11:39.237Z,3.90
2022-07-27T08:15:40.676Z,2.33
2022-07-27T08:19:41.885Z,1.90
2022-07-27T08:23:42.906Z,1.80
2022-07-27T08:27:43.854Z,1.80
2022-07-27T08:31:52.758Z,2.63
2022-07-27T08:35:49.994Z,3.10
2022-07-27T08:40:37.939Z,2.00
2022-07-27T08:43:56.277Z,1.50
2022-07-27T08:47:57.947Z,2.17
2022-07-27T08:51:59.469Z,2.00
2022-07-27T08:56:01.367Z,1.70
2022-07-27T09:00:05.657Z,2.00
2022-07-27T09:04:07.898Z,1.60
2022-07-27T09:08:11.932Z,1.60
2022-07-27T09:12:13.170Z,1.70
2022-07-27T09:16:19.358Z,2.60
2022-07-27T09:20:20.188Z,2.60
2022-07-27T09:24:45.431Z,2.23
2022-07-27T09:28:30.559Z,2.27
2022-07-27T09:32:31.900Z,2.43
2022-07-27T09:36:33.037Z,1.40
2022-07-27T09:40:35.670Z,1.30
2022-07-27T09:44:43.435Z,2.37
2022-07-27T09:48:43.033Z,2.50
2022-07-27T09:52:44.957Z,3.23
2022-07-27T09:56:49.725Z,1.53
2022-07-27T10:00:57.357Z,1.40
2022-07-27T10:04:58.622Z,2.07
2022-07-27T10:09:00.293Z,1.47
2022-07-27T10:13:01.411Z,1.70
2022-07-27T10:17:03.124Z,1.67
2022-07-27T10:21:08.351Z,1.40
2022-07-27T10:25:09.464Z,1.37
2022-07-27T10:29:17.176Z,1.30
2022-07-27T10:33:43.934Z,1.90
2022-07-27T10:37:48.852Z,1.63
2022-07-27T10:41:49.884Z,2.33
2022-07-27T10:46:02.072Z,1.30
2022-07-27T10:50:19.165Z,1.20
2022-07-27T10:54:21.672Z,1.80
2022-07-27T10:58:27.987Z,2.03
2022-07-27T11:02:40.183Z,1.33
2022-07-27T11:07:09.913Z,1.23
2022-07-27T11:10:44.454Z,1.53
2022-07-27T11:14:53.050Z,1.20
2022-07-27T11:19:01.954Z,1.03
2022-07-27T11:23:49.819Z,1.50
2022-07-27T11:27:16.934Z,2.17
2022-07-27T11:31:23.326Z,1.47
2022-07-27T11:35:19.951Z,1.40
2022-07-27T11:39:58.857Z,2.40
2022-07-27T11:43:38.475Z,1.80
2022-07-27T11:47:39.629Z,1.17
2022-07-27T11:51:46.347Z,1.17
2022-07-27T11:55:50.365Z,1.47
2022-07-27T11:59:51.400Z,1.90
2022-07-27T12:04:08.110Z,1.30
2022-07-27T12:08:09.349Z,1.20
2022-07-27T12:12:15.671Z,1.20
2022-07-27T12:16:18.573Z,1.57
2022-07-27T12:20:22.526Z,1.83
2022-07-27T12:24:39.148Z,1.20
2022-07-27T12:28:40.122Z,1.53
2022-07-27T12:32:45.252Z,1.57
2022-07-27T12:36:46.690Z,1.27
2022-07-27T12:40:50.439Z,2.23
2022-07-27T12:44:53.371Z,1.23
2022-07-27T12:48:54.826Z,1.40
2022-07-27T12:52:55.943Z,1.37
2022-07-27T12:56:57.119Z,1.20
2022-07-27T13:00:58.548Z,1.30
2022-07-27T13:04:59.998Z,1.20
2022-07-27T13:09:01.036Z,1.37
2022-07-27T13:13:04.918Z,1.43
2022-07-27T13:17:06.220Z,1.40
2022-07-27T13:21:07.323Z,1.77
2022-07-27T13:25:16.242Z,1.73
2022-07-27T13:29:13.484Z,1.33
2022-07-27T13:33:14.809Z,1.20
2022-07-27T13:37:15.816Z,1.50
2022-07-27T13:41:17.126Z,1.37
2022-07-27T13:45:18.136Z,1.50
2022-07-27T13:49:19.278Z,1.30
2022-07-27T13:53:20.662Z,1.00
2022-07-27T13:57:21.913Z,1.47
2022-07-27T14:01:22.995Z,1.30
2022-07-27T14:05:24.068Z,1.60
2022-07-27T14:09:28.909Z,1.60
2022-07-27T14:13:32.133Z,2.10
2022-07-27T14:17:33.145Z,1.13
2022-07-27T14:21:34.214Z,1.60
2022-07-27T14:25:35.560Z,1.33
2022-07-27T14:29:36.615Z,1.87
2022-07-27T14:33:39.121Z,1.33
2022-07-27T14:37:40.220Z,1.30
2022-07-27T14:41:44.247Z,1.63
2022-07-27T14:45:46.101Z,1.40
2022-07-27T14:49:47.211Z,2.30
2022-07-27T14:53:48.228Z,1.77
2022-07-27T14:57:49.613Z,0.97
2022-07-27T15:01:50.832Z,1.00
2022-07-27T15:05:52.046Z,1.10
2022-07-27T15:09:53.044Z,1.67
2022-07-27T15:13:54.530Z,1.30
2022-07-27T15:17:55.789Z,1.13
2022-07-27T15:21:56.814Z,2.50
2022-07-27T15:25:58.247Z,1.20
2022-07-27T15:29:59.450Z,1.20
2022-07-27T15:34:00.693Z,1.23
2022-07-27T15:38:01.789Z,1.23
2022-07-27T15:42:03.919Z,1.47
2022-07-27T15:46:07.936Z,2.00
2022-07-27T15:50:10.774Z,1.00
2022-07-27T15:54:12.003Z,1.27
2022-07-27T15:58:15.520Z,0.83
2022-07-27T16:02:16.848Z,1.60
2022-07-27T16:06:20.129Z,1.33
2022-07-27T16:10:21.533Z,2.13
2022-07-27T16:14:22.651Z,0.93
2022-07-27T16:18:24.158Z,1.27
2022-07-27T16:22:26.078Z,1.03
2022-07-27T16:26:27.221Z,1.50
2022-07-27T16:30:30.744Z,1.40
2022-07-27T16:34:33.087Z,1.10
2022-07-27T16:38:34.076Z,0.93
2022-07-27T16:42:38.051Z,1.10
2022-07-27T16:46:37.946Z,1.20
2022-07-27T16:50:39.725Z,1.27
2022-07-27T16:54:42.552Z,1.10
2022-07-27T16:58:44.436Z,0.97
2022-07-27T17:02:45.459Z,1.20
2022-07-27T17:06:46.753Z,1.73
2022-07-27T17:10:48.280Z,1.20
2022-07-27T17:14:49.349Z,1.23
2022-07-27T17:18:50.370Z,1.40
2022-07-27T17:22:52.018Z,1.00
2022-07-27T17:26:53.617Z,1.20
2022-07-27T17:30:54.553Z,1.57
2022-07-27T17:34:55.528Z,1.70
2022-07-27T17:38:57.268Z,1.10
2022-07-27T17:42:58.344Z,1.10
2022-07-27T17:47:02.048Z,1.03
2022-07-27T17:51:03.898Z,1.00
2022-07-27T17:55:05.883Z,1.10
2022-07-27T17:59:34.551Z,1.17
2022-07-27T18:03:11.877Z,1.10
2022-07-27T18:07:12.943Z,1.53
2022-07-27T18:11:14.133Z,1.40
2022-07-27T18:15:33.471Z,1.10
2022-07-27T18:19:34.660Z,1.10
2022-07-27T18:23:35.897Z,1.10
2022-07-27T18:27:37.715Z,1.63
2022-07-27T18:31:38.977Z,1.50
2022-07-27T18:35:40.944Z,1.20
2022-07-27T18:39:43.165Z,1.10
2022-07-27T18:43:50.997Z,1.07
2022-07-27T18:47:52.206Z,0.90
2022-07-27T18:51:54.537Z,1.97
2022-07-27T18:55:56.774Z,1.17
2022-07-27T18:59:58.029Z,1.37
2022-07-27T19:03:58.958Z,1.50
2022-07-27T19:08:00.102Z,1.17
2022-07-27T19:12:05.890Z,1.10
2022-07-27T19:16:04.551Z,1.10
2022-07-27T19:20:06.196Z,1.13
2022-07-27T19:24:07.429Z,1.20
2022-07-27T19:28:08.516Z,1.20
2022-07-27T19:32:10.345Z,1.40
2022-07-27T19:36:11.695Z,1.60
2022-07-27T19:40:44.781Z,1.37
2022-07-27T19:52:32.366Z,1.20
2022-07-27T19:56:37.401Z,1.50
2022-07-27T20:00:37.673Z,1.43
2022-07-27T20:04:41.424Z,1.50
2022-07-27T20:08:41.710Z,1.70
2022-07-27T20:12:42.750Z,1.47
2022-07-27T20:16:44.927Z,1.70
2022-07-27T20:20:46.176Z,1.70
2022-07-27T20:24:47.471Z,2.00
2022-07-27T20:28:49.181Z,1.57
2022-07-27T20:32:50.348Z,1.57
2022-07-27T20:36:51.705Z,2.07
2022-07-27T20:40:53.399Z,2.17
2022-07-27T20:44:54.812Z,1.60
2022-07-27T20:48:56.169Z,2.03
2022-07-27T20:52:59.635Z,1.27
2022-07-27T20:57:01.023Z,1.53
2022-07-27T21:01:02.354Z,1.50
2022-07-27T21:05:04.590Z,1.50
2022-07-27T21:09:06.921Z,1.33
2022-07-27T21:13:08.118Z,1.50
2022-07-27T21:17:09.444Z,1.67
2022-07-27T21:21:10.553Z,1.47
2022-07-27T21:25:11.675Z,1.43
2022-07-27T21:29:14.579Z,1.53
2022-07-27T21:33:15.750Z,2.00
2022-07-27T21:37:16.947Z,1.60
2022-07-27T21:41:18.157Z,2.20
2022-07-27T21:45:19.177Z,1.70
2022-07-27T21:49:23.615Z,1.50
2022-07-27T21:53:24.279Z,1.80
2022-07-27T21:57:28.145Z,2.17
2022-07-27T22:01:29.283Z,1.80
2022-07-27T22:05:30.700Z,1.67
2022-07-27T22:09:31.780Z,1.77
2022-07-27T22:13:33.012Z,1.73
2022-07-27T22:17:34.327Z,2.17
2022-07-27T22:21:35.526Z,2.10
2022-07-27T22:25:36.661Z,1.90
2022-07-27T22:29:37.754Z,1.83
2022-07-27T22:33:39.377Z,1.17
2022-07-27T22:37:42.773Z,1.53
2022-07-27T22:41:43.922Z,2.03
2022-07-27T22:45:45.166Z,1.70
2022-07-27T22:49:46.739Z,2.10
2022-07-27T22:53:48.438Z,1.80
2022-07-27T22:57:49.686Z,1.70
2022-07-27T23:01:50.760Z,1.30
2022-07-27T23:05:51.787Z,1.87
2022-07-27T23:09:52.722Z,2.00
2022-07-27T23:13:55.603Z,1.67
2022-07-27T23:17:56.687Z,1.50
2022-07-27T23:21:59.274Z,2.57
2022-07-27T23:26:00.810Z,1.70
2022-07-27T23:30:02.241Z,1.90
2022-07-27T23:34:03.348Z,2.00
2022-07-27T23:38:04.494Z,1.43
2022-07-27T23:42:05.809Z,1.60
2022-07-27T23:46:06.878Z,3.10
2022-07-27T23:50:09.435Z,2.60
2022-07-27T23:54:10.803Z,2.00
2022-07-27T23:58:11.995Z,1.60
